aviador You're here:

KRVS Decoded Metar

TULSA in OK, USA
Report Time2017-07-22 09:53:00
UTC Time2017-07-22 10:40:43
Flight Rules vfr VFR
WindCalm
Visibility9999 m
Phenomena:N/A
Clouds:Broken 110 Hf
Expected CloudBase > 2,000 ft AGL from Temp-Dew spread
Ceiling11,000 ft
Temp26°C (ISA +12)
Dew Point21°C (74% RH)
QNH1013 hPa
Density Alt2,408 ft
Elevation656 ft
Report Wrong Elevation
Raw Report
KRVS 220953Z 00000KT 10SM BKN110 26/21 A2990 RMK AO2 SLP125
T02610206=

Extra information for KRVS:More info

Metar Taf Metar & Taf Last 4 Metars F.Rules Stats Wind Profile Meteogram Temp Stats Airport Information Weather charts Add Link Nearby VenuesMetar ALERT Operation Metar Decoded Social comments

AIRNAV info for KRVS